Lindside, West Virginia
Current Conditions -  °F | °C
As of 8:35 PM on Saturday 25 Oct 2014 (Local Time) from KPSK Reporting Station
Clear Clear  
Wind Chill: 60°   Ceiling: Unl
Heat Index: 60°   Visibility: 10mi
Dew Point: 51°   Wind: 3mph
Humidity: 71%   Direction: 180°S
Pressure: 29.96"   Gusts: NA
Location:  37.45°N, 80.67°W
Report Text: KPSK 260035Z AUTO 18003KT 10SM CLR 16/10 A2996 RMK AO2 T01570104
Loading
Personal Weather Stations






























Interactive Weather Map
Tropical Storm Tracking
New forecast layout! Learn more

10-Day Weather Forecast

Advertisements
Track Severe Weather on mobile